sensor_id;sensor_type;location;lat;lon;timestamp;P1;durP1;ratioP1;P2;durP2;ratioP2
12687;SDS011;6408;59.388;17.798;2023-12-20T00:02:15;7.17;;;1.57;;
12687;SDS011;6408;59.388;17.798;2023-12-20T00:04:42;6.17;;;1.60;;
12687;SDS011;6408;59.388;17.798;2023-12-20T00:07:09;7.27;;;1.97;;
12687;SDS011;6408;59.388;17.798;2023-12-20T00:09:36;7.47;;;1.77;;
12687;SDS011;6408;59.388;17.798;2023-12-20T00:12:05;6.57;;;1.90;;
12687;SDS011;6408;59.388;17.798;2023-12-20T00:14:32;9.40;;;2.17;;
12687;SDS011;6408;59.388;17.798;2023-12-20T00:16:59;10.33;;;1.67;;
12687;SDS011;6408;59.388;17.798;2023-12-20T00:19:26;7.20;;;1.87;;
12687;SDS011;6408;59.388;17.798;2023-12-20T00:21:53;11.27;;;1.80;;
12687;SDS011;6408;59.388;17.798;2023-12-20T00:24:20;10.90;;;1.53;;
12687;SDS011;6408;59.388;17.798;2023-12-20T00:26:49;7.83;;;1.43;;
12687;SDS011;6408;59.388;17.798;2023-12-20T00:29:18;5.23;;;2.00;;
12687;SDS011;6408;59.388;17.798;2023-12-20T00:31:45;7.07;;;1.43;;
12687;SDS011;6408;59.388;17.798;2023-12-20T00:34:12;7.37;;;1.70;;
12687;SDS011;6408;59.388;17.798;2023-12-20T00:36:39;7.23;;;1.47;;
12687;SDS011;6408;59.388;17.798;2023-12-20T00:39:06;8.57;;;2.10;;
12687;SDS011;6408;59.388;17.798;2023-12-20T00:41:33;6.80;;;2.27;;
12687;SDS011;6408;59.388;17.798;2023-12-20T00:44:00;10.93;;;2.50;;
12687;SDS011;6408;59.388;17.798;2023-12-20T00:46:29;6.43;;;1.90;;
12687;SDS011;6408;59.388;17.798;2023-12-20T00:48:56;11.17;;;2.70;;
12687;SDS011;6408;59.388;17.798;2023-12-20T00:51:23;9.40;;;2.03;;
12687;SDS011;6408;59.388;17.798;2023-12-20T00:53:50;6.07;;;1.70;;
12687;SDS011;6408;59.388;17.798;2023-12-20T00:56:21;4.30;;;1.87;;
12687;SDS011;6408;59.388;17.798;2023-12-20T00:58:48;9.03;;;2.40;;
12687;SDS011;6408;59.388;17.798;2023-12-20T01:01:15;10.77;;;2.10;;
12687;SDS011;6408;59.388;17.798;2023-12-20T01:03:43;10.60;;;2.20;;
12687;SDS011;6408;59.388;17.798;2023-12-20T01:06:10;5.57;;;1.57;;
12687;SDS011;6408;59.388;17.798;2023-12-20T01:08:37;8.93;;;1.77;;
12687;SDS011;6408;59.388;17.798;2023-12-20T01:11:05;8.00;;;1.60;;
12687;SDS011;6408;59.388;17.798;2023-12-20T01:13:32;4.37;;;1.80;;
12687;SDS011;6408;59.388;17.798;2023-12-20T01:15:59;9.00;;;1.43;;
12687;SDS011;6408;59.388;17.798;2023-12-20T01:18:26;8.00;;;1.77;;
12687;SDS011;6408;59.388;17.798;2023-12-20T01:20:55;7.73;;;2.23;;
12687;SDS011;6408;59.388;17.798;2023-12-20T01:23:22;7.83;;;2.00;;
12687;SDS011;6408;59.388;17.798;2023-12-20T01:25:49;5.83;;;1.97;;
12687;SDS011;6408;59.388;17.798;2023-12-20T01:28:16;10.53;;;2.57;;
12687;SDS011;6408;59.388;17.798;2023-12-20T01:30:43;9.80;;;2.00;;
12687;SDS011;6408;59.388;17.798;2023-12-20T01:33:10;6.33;;;1.63;;
12687;SDS011;6408;59.388;17.798;2023-12-20T01:35:37;8.90;;;2.37;;
12687;SDS011;6408;59.388;17.798;2023-12-20T01:38:06;9.83;;;2.13;;
12687;SDS011;6408;59.388;17.798;2023-12-20T01:40:33;6.50;;;1.93;;
12687;SDS011;6408;59.388;17.798;2023-12-20T01:43:00;6.00;;;1.50;;
12687;SDS011;6408;59.388;17.798;2023-12-20T01:45:27;6.23;;;1.73;;
12687;SDS011;6408;59.388;17.798;2023-12-20T01:47:54;10.63;;;1.93;;
12687;SDS011;6408;59.388;17.798;2023-12-20T01:50:23;4.97;;;1.70;;
12687;SDS011;6408;59.388;17.798;2023-12-20T01:52:50;8.70;;;1.60;;
12687;SDS011;6408;59.388;17.798;2023-12-20T01:55:20;10.03;;;2.20;;
12687;SDS011;6408;59.388;17.798;2023-12-20T01:57:47;12.07;;;2.23;;
12687;SDS011;6408;59.388;17.798;2023-12-20T02:00:14;7.83;;;2.00;;
12687;SDS011;6408;59.388;17.798;2023-12-20T02:02:41;12.37;;;2.10;;
12687;SDS011;6408;59.388;17.798;2023-12-20T02:05:11;12.23;;;2.33;;
12687;SDS011;6408;59.388;17.798;2023-12-20T02:07:37;7.73;;;1.97;;
12687;SDS011;6408;59.388;17.798;2023-12-20T02:10:05;13.57;;;1.90;;
12687;SDS011;6408;59.388;17.798;2023-12-20T02:12:34;10.87;;;2.20;;
12687;SDS011;6408;59.388;17.798;2023-12-20T02:15:01;8.50;;;2.20;;
12687;SDS011;6408;59.388;17.798;2023-12-20T02:17:28;8.60;;;2.47;;
12687;SDS011;6408;59.388;17.798;2023-12-20T02:19:56;8.20;;;1.97;;
12687;SDS011;6408;59.388;17.798;2023-12-20T02:22:24;8.37;;;2.20;;
12687;SDS011;6408;59.388;17.798;2023-12-20T02:24:51;9.80;;;2.10;;
12687;SDS011;6408;59.388;17.798;2023-12-20T02:27:19;10.37;;;2.03;;
12687;SDS011;6408;59.388;17.798;2023-12-20T02:29:47;9.10;;;2.20;;
12687;SDS011;6408;59.388;17.798;2023-12-20T02:32:14;6.10;;;1.80;;
12687;SDS011;6408;59.388;17.798;2023-12-20T02:34:41;9.83;;;1.90;;
12687;SDS011;6408;59.388;17.798;2023-12-20T02:37:08;9.87;;;2.10;;
12687;SDS011;6408;59.388;17.798;2023-12-20T02:39:37;6.50;;;2.00;;
12687;SDS011;6408;59.388;17.798;2023-12-20T02:42:04;8.87;;;2.30;;
12687;SDS011;6408;59.388;17.798;2023-12-20T02:44:31;10.57;;;2.00;;
12687;SDS011;6408;59.388;17.798;2023-12-20T02:46:58;9.77;;;1.77;;
12687;SDS011;6408;59.388;17.798;2023-12-20T02:49:25;9.77;;;2.20;;
12687;SDS011;6408;59.388;17.798;2023-12-20T02:51:52;9.53;;;1.90;;
12687;SDS011;6408;59.388;17.798;2023-12-20T02:54:19;9.23;;;1.87;;
12687;SDS011;6408;59.388;17.798;2023-12-20T02:56:48;5.93;;;1.57;;
12687;SDS011;6408;59.388;17.798;2023-12-20T02:59:15;10.73;;;1.77;;
12687;SDS011;6408;59.388;17.798;2023-12-20T03:01:42;12.17;;;2.30;;
12687;SDS011;6408;59.388;17.798;2023-12-20T03:04:11;8.90;;;2.07;;
12687;SDS011;6408;59.388;17.798;2023-12-20T03:06:38;7.03;;;2.00;;
12687;SDS011;6408;59.388;17.798;2023-12-20T03:09:05;5.77;;;1.60;;
12687;SDS011;6408;59.388;17.798;2023-12-20T03:11:33;9.97;;;1.77;;
12687;SDS011;6408;59.388;17.798;2023-12-20T03:14:01;8.00;;;1.77;;
12687;SDS011;6408;59.388;17.798;2023-12-20T03:16:28;11.30;;;1.93;;
12687;SDS011;6408;59.388;17.798;2023-12-20T03:18:56;7.73;;;1.77;;
12687;SDS011;6408;59.388;17.798;2023-12-20T03:21:23;7.43;;;1.90;;
12687;SDS011;6408;59.388;17.798;2023-12-20T03:23:50;8.17;;;1.80;;
12687;SDS011;6408;59.388;17.798;2023-12-20T03:26:17;7.53;;;2.40;;
12687;SDS011;6408;59.388;17.798;2023-12-20T03:28:44;9.30;;;2.10;;
12687;SDS011;6408;59.388;17.798;2023-12-20T03:31:13;8.53;;;2.00;;
12687;SDS011;6408;59.388;17.798;2023-12-20T03:33:40;9.33;;;1.93;;
12687;SDS011;6408;59.388;17.798;2023-12-20T03:36:07;8.40;;;2.10;;
12687;SDS011;6408;59.388;17.798;2023-12-20T03:38:34;2.87;;;1.40;;
12687;SDS011;6408;59.388;17.798;2023-12-20T03:41:01;6.77;;;1.80;;
12687;SDS011;6408;59.388;17.798;2023-12-20T03:43:28;7.27;;;1.40;;
12687;SDS011;6408;59.388;17.798;2023-12-20T03:45:56;6.23;;;1.70;;
12687;SDS011;6408;59.388;17.798;2023-12-20T03:48:25;7.20;;;1.70;;
12687;SDS011;6408;59.388;17.798;2023-12-20T03:50:52;8.47;;;1.83;;
12687;SDS011;6408;59.388;17.798;2023-12-20T03:53:19;7.93;;;1.70;;
12687;SDS011;6408;59.388;17.798;2023-12-20T03:55:46;6.17;;;1.70;;
12687;SDS011;6408;59.388;17.798;2023-12-20T03:58:13;7.30;;;1.57;;
12687;SDS011;6408;59.388;17.798;2023-12-20T04:00:40;8.83;;;2.07;;
12687;SDS011;6408;59.388;17.798;2023-12-20T04:03:07;5.67;;;1.50;;
12687;SDS011;6408;59.388;17.798;2023-12-20T04:05:35;7.50;;;2.03;;
12687;SDS011;6408;59.388;17.798;2023-12-20T04:08:03;5.70;;;1.73;;
12687;SDS011;6408;59.388;17.798;2023-12-20T04:10:30;7.77;;;1.73;;
12687;SDS011;6408;59.388;17.798;2023-12-20T04:12:57;4.70;;;1.57;;
12687;SDS011;6408;59.388;17.798;2023-12-20T04:15:24;2.93;;;1.33;;
12687;SDS011;6408;59.388;17.798;2023-12-20T04:17:51;8.23;;;1.60;;
12687;SDS011;6408;59.388;17.798;2023-12-20T04:20:18;5.40;;;1.97;;
12687;SDS011;6408;59.388;17.798;2023-12-20T04:22:47;10.03;;;2.13;;
12687;SDS011;6408;59.388;17.798;2023-12-20T04:25:14;8.43;;;2.23;;
12687;SDS011;6408;59.388;17.798;2023-12-20T04:27:41;8.73;;;2.03;;
12687;SDS011;6408;59.388;17.798;2023-12-20T04:30:09;8.30;;;2.10;;
12687;SDS011;6408;59.388;17.798;2023-12-20T04:32:36;5.63;;;2.20;;
12687;SDS011;6408;59.388;17.798;2023-12-20T04:35:04;8.33;;;1.93;;
12687;SDS011;6408;59.388;17.798;2023-12-20T04:37:32;3.17;;;1.60;;
12687;SDS011;6408;59.388;17.798;2023-12-20T04:40:00;8.03;;;1.83;;
12687;SDS011;6408;59.388;17.798;2023-12-20T04:42:28;8.67;;;1.90;;
12687;SDS011;6408;59.388;17.798;2023-12-20T04:44:55;7.83;;;2.17;;
12687;SDS011;6408;59.388;17.798;2023-12-20T04:47:22;10.53;;;1.90;;
12687;SDS011;6408;59.388;17.798;2023-12-20T04:49:49;4.50;;;1.60;;
12687;SDS011;6408;59.388;17.798;2023-12-20T04:52:16;5.53;;;1.50;;
12687;SDS011;6408;59.388;17.798;2023-12-20T04:54:43;5.57;;;1.37;;
12687;SDS011;6408;59.388;17.798;2023-12-20T04:57:11;7.03;;;1.43;;
12687;SDS011;6408;59.388;17.798;2023-12-20T04:59:38;3.90;;;1.23;;
12687;SDS011;6408;59.388;17.798;2023-12-20T05:02:06;6.67;;;2.10;;
12687;SDS011;6408;59.388;17.798;2023-12-20T05:04:33;8.10;;;1.70;;
12687;SDS011;6408;59.388;17.798;2023-12-20T05:07:00;10.67;;;1.90;;
12687;SDS011;6408;59.388;17.798;2023-12-20T05:09:27;6.73;;;1.57;;
12687;SDS011;6408;59.388;17.798;2023-12-20T05:11:54;7.00;;;2.10;;
12687;SDS011;6408;59.388;17.798;2023-12-20T05:14:22;8.37;;;2.00;;
12687;SDS011;6408;59.388;17.798;2023-12-20T05:16:49;5.00;;;1.23;;
12687;SDS011;6408;59.388;17.798;2023-12-20T05:19:16;7.70;;;1.70;;
12687;SDS011;6408;59.388;17.798;2023-12-20T05:21:43;5.53;;;1.77;;
12687;SDS011;6408;59.388;17.798;2023-12-20T05:24:10;5.17;;;1.40;;
12687;SDS011;6408;59.388;17.798;2023-12-20T05:26:37;6.90;;;1.70;;
12687;SDS011;6408;59.388;17.798;2023-12-20T05:29:04;5.87;;;1.80;;
12687;SDS011;6408;59.388;17.798;2023-12-20T05:31:33;8.20;;;1.93;;
12687;SDS011;6408;59.388;17.798;2023-12-20T05:34:00;4.53;;;1.67;;
12687;SDS011;6408;59.388;17.798;2023-12-20T05:36:27;6.80;;;1.57;;
12687;SDS011;6408;59.388;17.798;2023-12-20T05:38:54;6.03;;;1.40;;
12687;SDS011;6408;59.388;17.798;2023-12-20T05:41:21;6.80;;;1.80;;
12687;SDS011;6408;59.388;17.798;2023-12-20T05:43:48;4.83;;;1.30;;
12687;SDS011;6408;59.388;17.798;2023-12-20T05:46:15;5.60;;;1.60;;
12687;SDS011;6408;59.388;17.798;2023-12-20T05:48:44;5.17;;;1.47;;
12687;SDS011;6408;59.388;17.798;2023-12-20T05:51:11;5.77;;;1.53;;
12687;SDS011;6408;59.388;17.798;2023-12-20T05:53:38;8.67;;;1.50;;
12687;SDS011;6408;59.388;17.798;2023-12-20T05:56:06;6.70;;;1.97;;
12687;SDS011;6408;59.388;17.798;2023-12-20T05:58:33;7.17;;;2.30;;
12687;SDS011;6408;59.388;17.798;2023-12-20T06:01:00;4.90;;;1.60;;
12687;SDS011;6408;59.388;17.798;2023-12-20T06:03:29;10.50;;;1.90;;
12687;SDS011;6408;59.388;17.798;2023-12-20T06:05:58;8.03;;;1.70;;
12687;SDS011;6408;59.388;17.798;2023-12-20T06:08:25;6.03;;;2.10;;
12687;SDS011;6408;59.388;17.798;2023-12-20T06:10:52;11.70;;;2.37;;
12687;SDS011;6408;59.388;17.798;2023-12-20T06:13:19;5.40;;;1.80;;
12687;SDS011;6408;59.388;17.798;2023-12-20T06:15:46;9.90;;;1.93;;
12687;SDS011;6408;59.388;17.798;2023-12-20T06:18:13;7.77;;;2.10;;
12687;SDS011;6408;59.388;17.798;2023-12-20T06:20:40;7.77;;;1.90;;
12687;SDS011;6408;59.388;17.798;2023-12-20T06:23:09;5.83;;;1.80;;
12687;SDS011;6408;59.388;17.798;2023-12-20T06:25:36;7.83;;;1.97;;
12687;SDS011;6408;59.388;17.798;2023-12-20T06:28:03;7.93;;;1.87;;
12687;SDS011;6408;59.388;17.798;2023-12-20T06:30:31;10.90;;;2.30;;
12687;SDS011;6408;59.388;17.798;2023-12-20T06:32:59;6.80;;;1.67;;
12687;SDS011;6408;59.388;17.798;2023-12-20T06:35:26;5.83;;;2.13;;
12687;SDS011;6408;59.388;17.798;2023-12-20T06:37:53;7.90;;;1.87;;
12687;SDS011;6408;59.388;17.798;2023-12-20T06:40:22;11.20;;;2.70;;
12687;SDS011;6408;59.388;17.798;2023-12-20T06:42:49;8.53;;;2.93;;
12687;SDS011;6408;59.388;17.798;2023-12-20T06:45:16;9.83;;;1.93;;
12687;SDS011;6408;59.388;17.798;2023-12-20T06:47:43;6.40;;;2.20;;
12687;SDS011;6408;59.388;17.798;2023-12-20T06:50:10;10.00;;;2.60;;
12687;SDS011;6408;59.388;17.798;2023-12-20T06:52:37;12.07;;;2.00;;
12687;SDS011;6408;59.388;17.798;2023-12-20T06:55:05;9.03;;;2.47;;
12687;SDS011;6408;59.388;17.798;2023-12-20T06:57:35;8.70;;;2.57;;
12687;SDS011;6408;59.388;17.798;2023-12-20T07:00:02;10.37;;;2.73;;
12687;SDS011;6408;59.388;17.798;2023-12-20T07:02:30;9.23;;;2.30;;
12687;SDS011;6408;59.388;17.798;2023-12-20T07:04:57;10.77;;;2.50;;
12687;SDS011;6408;59.388;17.798;2023-12-20T07:07:24;18.10;;;6.13;;
12687;SDS011;6408;59.388;17.798;2023-12-20T07:09:51;14.47;;;3.23;;
12687;SDS011;6408;59.388;17.798;2023-12-20T07:12:18;14.80;;;2.93;;
12687;SDS011;6408;59.388;17.798;2023-12-20T07:14:47;9.13;;;2.60;;
12687;SDS011;6408;59.388;17.798;2023-12-20T07:17:14;11.00;;;3.53;;
12687;SDS011;6408;59.388;17.798;2023-12-20T07:19:41;6.80;;;2.83;;
12687;SDS011;6408;59.388;17.798;2023-12-20T07:22:08;13.37;;;3.10;;
12687;SDS011;6408;59.388;17.798;2023-12-20T07:24:36;9.23;;;2.73;;
12687;SDS011;6408;59.388;17.798;2023-12-20T07:27:03;12.23;;;2.57;;
12687;SDS011;6408;59.388;17.798;2023-12-20T07:29:30;6.40;;;2.50;;
12687;SDS011;6408;59.388;17.798;2023-12-20T07:31:59;7.40;;;2.67;;
12687;SDS011;6408;59.388;17.798;2023-12-20T07:34:27;12.27;;;3.30;;
12687;SDS011;6408;59.388;17.798;2023-12-20T07:36:54;14.03;;;3.90;;
12687;SDS011;6408;59.388;17.798;2023-12-20T07:39:21;9.83;;;3.27;;
12687;SDS011;6408;59.388;17.798;2023-12-20T07:41:48;10.73;;;3.47;;
12687;SDS011;6408;59.388;17.798;2023-12-20T07:44:15;6.93;;;4.07;;
12687;SDS011;6408;59.388;17.798;2023-12-20T07:46:42;12.80;;;4.27;;
12687;SDS011;6408;59.388;17.798;2023-12-20T07:49:11;13.87;;;4.10;;
12687;SDS011;6408;59.388;17.798;2023-12-20T07:51:38;13.87;;;4.43;;
12687;SDS011;6408;59.388;17.798;2023-12-20T07:54:06;14.37;;;5.00;;
12687;SDS011;6408;59.388;17.798;2023-12-20T07:56:33;9.97;;;4.90;;
12687;SDS011;6408;59.388;17.798;2023-12-20T07:59:00;16.83;;;6.20;;
12687;SDS011;6408;59.388;17.798;2023-12-20T08:01:27;8.97;;;4.87;;
12687;SDS011;6408;59.388;17.798;2023-12-20T08:03:55;9.17;;;3.70;;
12687;SDS011;6408;59.388;17.798;2023-12-20T08:06:24;11.53;;;3.67;;
12687;SDS011;6408;59.388;17.798;2023-12-20T08:08:51;8.47;;;3.20;;
12687;SDS011;6408;59.388;17.798;2023-12-20T08:11:18;13.23;;;3.53;;
12687;SDS011;6408;59.388;17.798;2023-12-20T08:13:45;11.47;;;3.10;;
12687;SDS011;6408;59.388;17.798;2023-12-20T08:16:12;13.50;;;3.53;;
12687;SDS011;6408;59.388;17.798;2023-12-20T08:18:42;9.63;;;3.03;;
12687;SDS011;6408;59.388;17.798;2023-12-20T08:21:09;8.77;;;3.10;;
12687;SDS011;6408;59.388;17.798;2023-12-20T08:23:38;8.37;;;3.50;;
12687;SDS011;6408;59.388;17.798;2023-12-20T08:26:05;11.03;;;3.23;;
12687;SDS011;6408;59.388;17.798;2023-12-20T08:28:33;8.77;;;2.73;;
12687;SDS011;6408;59.388;17.798;2023-12-20T08:31:00;16.97;;;3.00;;
12687;SDS011;6408;59.388;17.798;2023-12-20T08:33:27;8.20;;;2.93;;
12687;SDS011;6408;59.388;17.798;2023-12-20T08:35:55;10.07;;;2.70;;
12687;SDS011;6408;59.388;17.798;2023-12-20T08:38:22;13.73;;;2.77;;
12687;SDS011;6408;59.388;17.798;2023-12-20T08:40:50;9.90;;;3.60;;
12687;SDS011;6408;59.388;17.798;2023-12-20T08:43:18;8.70;;;2.57;;
12687;SDS011;6408;59.388;17.798;2023-12-20T08:45:45;8.53;;;2.30;;
12687;SDS011;6408;59.388;17.798;2023-12-20T08:48:12;8.70;;;2.93;;
12687;SDS011;6408;59.388;17.798;2023-12-20T08:50:39;9.13;;;2.43;;
12687;SDS011;6408;59.388;17.798;2023-12-20T08:53:06;11.77;;;2.17;;
12687;SDS011;6408;59.388;17.798;2023-12-20T08:55:33;4.87;;;2.10;;
12687;SDS011;6408;59.388;17.798;2023-12-20T08:58:02;8.90;;;2.73;;
12687;SDS011;6408;59.388;17.798;2023-12-20T09:00:31;12.00;;;2.63;;
12687;SDS011;6408;59.388;17.798;2023-12-20T09:02:59;9.60;;;3.10;;
12687;SDS011;6408;59.388;17.798;2023-12-20T09:05:26;12.83;;;3.27;;
12687;SDS011;6408;59.388;17.798;2023-12-20T09:07:53;6.53;;;2.33;;
12687;SDS011;6408;59.388;17.798;2023-12-20T09:10:20;6.33;;;2.27;;
12687;SDS011;6408;59.388;17.798;2023-12-20T09:12:48;6.20;;;1.83;;
12687;SDS011;6408;59.388;17.798;2023-12-20T09:15:18;7.60;;;1.87;;
12687;SDS011;6408;59.388;17.798;2023-12-20T09:17:45;8.63;;;2.27;;
12687;SDS011;6408;59.388;17.798;2023-12-20T09:20:12;4.87;;;1.60;;
12687;SDS011;6408;59.388;17.798;2023-12-20T09:22:39;9.13;;;2.83;;
12687;SDS011;6408;59.388;17.798;2023-12-20T09:25:07;7.73;;;2.37;;
12687;SDS011;6408;59.388;17.798;2023-12-20T09:27:35;5.97;;;1.93;;
12687;SDS011;6408;59.388;17.798;2023-12-20T09:30:03;9.17;;;2.00;;
12687;SDS011;6408;59.388;17.798;2023-12-20T09:32:33;10.93;;;1.77;;
12687;SDS011;6408;59.388;17.798;2023-12-20T09:35:00;8.27;;;2.23;;
12687;SDS011;6408;59.388;17.798;2023-12-20T09:37:27;6.73;;;1.50;;
12687;SDS011;6408;59.388;17.798;2023-12-20T09:39:54;6.83;;;1.40;;
12687;SDS011;6408;59.388;17.798;2023-12-20T09:42:24;5.73;;;2.37;;
12687;SDS011;6408;59.388;17.798;2023-12-20T09:45:07;9.93;;;2.60;;
12687;SDS011;6408;59.388;17.798;2023-12-20T09:47:37;9.53;;;1.73;;
12687;SDS011;6408;59.388;17.798;2023-12-20T09:50:05;6.00;;;2.10;;
12687;SDS011;6408;59.388;17.798;2023-12-20T09:52:33;11.30;;;2.03;;
12687;SDS011;6408;59.388;17.798;2023-12-20T09:55:02;6.17;;;2.13;;
12687;SDS011;6408;59.388;17.798;2023-12-20T09:57:31;9.67;;;2.37;;
12687;SDS011;6408;59.388;17.798;2023-12-20T09:59:58;7.80;;;1.73;;
12687;SDS011;6408;59.388;17.798;2023-12-20T10:02:25;12.10;;;2.40;;
12687;SDS011;6408;59.388;17.798;2023-12-20T10:04:55;6.27;;;2.07;;
12687;SDS011;6408;59.388;17.798;2023-12-20T10:07:22;9.70;;;2.43;;
12687;SDS011;6408;59.388;17.798;2023-12-20T10:09:51;8.37;;;2.40;;
12687;SDS011;6408;59.388;17.798;2023-12-20T10:12:21;9.60;;;2.40;;
12687;SDS011;6408;59.388;17.798;2023-12-20T10:14:49;8.30;;;2.37;;
12687;SDS011;6408;59.388;17.798;2023-12-20T10:17:17;11.27;;;2.30;;
12687;SDS011;6408;59.388;17.798;2023-12-20T10:19:44;6.60;;;2.23;;
12687;SDS011;6408;59.388;17.798;2023-12-20T10:22:13;7.20;;;1.80;;
12687;SDS011;6408;59.388;17.798;2023-12-20T10:24:40;6.03;;;1.80;;
12687;SDS011;6408;59.388;17.798;2023-12-20T10:27:07;6.50;;;1.90;;
12687;SDS011;6408;59.388;17.798;2023-12-20T10:29:35;4.90;;;1.57;;
12687;SDS011;6408;59.388;17.798;2023-12-20T10:32:22;10.20;;;2.07;;
12687;SDS011;6408;59.388;17.798;2023-12-20T10:34:50;7.23;;;1.83;;
12687;SDS011;6408;59.388;17.798;2023-12-20T10:37:19;7.67;;;1.80;;
12687;SDS011;6408;59.388;17.798;2023-12-20T10:39:47;5.57;;;1.60;;
12687;SDS011;6408;59.388;17.798;2023-12-20T10:42:17;9.23;;;1.93;;
12687;SDS011;6408;59.388;17.798;2023-12-20T10:44:46;10.27;;;1.90;;
12687;SDS011;6408;59.388;17.798;2023-12-20T10:47:13;4.63;;;1.50;;
12687;SDS011;6408;59.388;17.798;2023-12-20T10:49:41;5.77;;;1.50;;
12687;SDS011;6408;59.388;17.798;2023-12-20T10:52:09;7.97;;;1.57;;
12687;SDS011;6408;59.388;17.798;2023-12-20T10:54:40;8.23;;;1.63;;
12687;SDS011;6408;59.388;17.798;2023-12-20T10:57:07;3.80;;;1.40;;
12687;SDS011;6408;59.388;17.798;2023-12-20T10:59:36;5.17;;;1.70;;
12687;SDS011;6408;59.388;17.798;2023-12-20T11:02:04;4.90;;;1.67;;
12687;SDS011;6408;59.388;17.798;2023-12-20T11:04:35;4.53;;;1.70;;
12687;SDS011;6408;59.388;17.798;2023-12-20T11:07:15;5.27;;;1.27;;
12687;SDS011;6408;59.388;17.798;2023-12-20T11:09:54;5.53;;;1.47;;
12687;SDS011;6408;59.388;17.798;2023-12-20T11:12:29;2.83;;;1.40;;
12687;SDS011;6408;59.388;17.798;2023-12-20T11:15:03;3.50;;;1.27;;
12687;SDS011;6408;59.388;17.798;2023-12-20T11:17:31;5.93;;;1.60;;
12687;SDS011;6408;59.388;17.798;2023-12-20T11:20:05;5.90;;;1.63;;
12687;SDS011;6408;59.388;17.798;2023-12-20T11:22:35;5.03;;;1.40;;
12687;SDS011;6408;59.388;17.798;2023-12-20T11:25:06;4.03;;;1.40;;
12687;SDS011;6408;59.388;17.798;2023-12-20T11:27:34;4.37;;;1.20;;
12687;SDS011;6408;59.388;17.798;2023-12-20T11:30:03;2.93;;;1.60;;
12687;SDS011;6408;59.388;17.798;2023-12-20T11:32:33;3.70;;;1.20;;
12687;SDS011;6408;59.388;17.798;2023-12-20T11:35:01;4.63;;;1.63;;
12687;SDS011;6408;59.388;17.798;2023-12-20T11:37:44;2.13;;;1.13;;
12687;SDS011;6408;59.388;17.798;2023-12-20T11:40:15;4.03;;;1.47;;
12687;SDS011;6408;59.388;17.798;2023-12-20T11:42:43;1.40;;;1.20;;
12687;SDS011;6408;59.388;17.798;2023-12-20T11:45:13;5.40;;;1.97;;
12687;SDS011;6408;59.388;17.798;2023-12-20T11:47:42;4.63;;;1.40;;
12687;SDS011;6408;59.388;17.798;2023-12-20T11:50:10;4.80;;;1.50;;
12687;SDS011;6408;59.388;17.798;2023-12-20T11:52:37;6.83;;;1.10;;
12687;SDS011;6408;59.388;17.798;2023-12-20T11:55:05;4.53;;;1.50;;
12687;SDS011;6408;59.388;17.798;2023-12-20T11:57:35;2.80;;;1.20;;
12687;SDS011;6408;59.388;17.798;2023-12-20T12:00:03;5.23;;;1.67;;
12687;SDS011;6408;59.388;17.798;2023-12-20T12:02:31;2.57;;;1.13;;
12687;SDS011;6408;59.388;17.798;2023-12-20T12:04:59;3.10;;;1.43;;
12687;SDS011;6408;59.388;17.798;2023-12-20T12:07:26;3.60;;;1.63;;
12687;SDS011;6408;59.388;17.798;2023-12-20T12:09:54;2.50;;;1.37;;
12687;SDS011;6408;59.388;17.798;2023-12-20T12:12:23;3.67;;;1.60;;
12687;SDS011;6408;59.388;17.798;2023-12-20T12:14:54;3.27;;;1.53;;
12687;SDS011;6408;59.388;17.798;2023-12-20T12:17:22;3.33;;;1.50;;
12687;SDS011;6408;59.388;17.798;2023-12-20T12:19:49;3.63;;;1.40;;
12687;SDS011;6408;59.388;17.798;2023-12-20T12:22:16;2.23;;;1.17;;
12687;SDS011;6408;59.388;17.798;2023-12-20T12:24:45;2.77;;;1.37;;
12687;SDS011;6408;59.388;17.798;2023-12-20T12:27:13;1.37;;;1.20;;
12687;SDS011;6408;59.388;17.798;2023-12-20T12:29:41;1.40;;;1.23;;
12687;SDS011;6408;59.388;17.798;2023-12-20T12:32:27;1.73;;;1.20;;
12687;SDS011;6408;59.388;17.798;2023-12-20T12:34:54;1.07;;;0.90;;
12687;SDS011;6408;59.388;17.798;2023-12-20T12:37:22;2.80;;;1.00;;
12687;SDS011;6408;59.388;17.798;2023-12-20T12:39:53;1.77;;;1.07;;
12687;SDS011;6408;59.388;17.798;2023-12-20T12:42:20;3.57;;;1.00;;
12687;SDS011;6408;59.388;17.798;2023-12-20T12:44:51;2.20;;;1.00;;
12687;SDS011;6408;59.388;17.798;2023-12-20T12:47:18;1.60;;;1.00;;
12687;SDS011;6408;59.388;17.798;2023-12-20T12:49:47;2.40;;;1.10;;
12687;SDS011;6408;59.388;17.798;2023-12-20T12:52:17;2.27;;;1.30;;
12687;SDS011;6408;59.388;17.798;2023-12-20T12:54:44;1.93;;;0.90;;
12687;SDS011;6408;59.388;17.798;2023-12-20T12:57:13;2.50;;;1.00;;
12687;SDS011;6408;59.388;17.798;2023-12-20T12:59:41;2.07;;;0.80;;
12687;SDS011;6408;59.388;17.798;2023-12-20T13:02:09;1.20;;;0.83;;
12687;SDS011;6408;59.388;17.798;2023-12-20T13:04:36;3.43;;;0.90;;
12687;SDS011;6408;59.388;17.798;2023-12-20T13:07:05;2.23;;;1.00;;
12687;SDS011;6408;59.388;17.798;2023-12-20T13:09:32;2.33;;;1.13;;
12687;SDS011;6408;59.388;17.798;2023-12-20T13:12:00;1.87;;;1.00;;
12687;SDS011;6408;59.388;17.798;2023-12-20T13:14:29;1.83;;;0.90;;
12687;SDS011;6408;59.388;17.798;2023-12-20T13:16:56;3.13;;;1.07;;
12687;SDS011;6408;59.388;17.798;2023-12-20T13:19:23;2.97;;;1.07;;
12687;SDS011;6408;59.388;17.798;2023-12-20T13:21:50;1.30;;;1.17;;
12687;SDS011;6408;59.388;17.798;2023-12-20T13:24:19;1.97;;;1.20;;
12687;SDS011;6408;59.388;17.798;2023-12-20T13:26:46;2.33;;;1.10;;
12687;SDS011;6408;59.388;17.798;2023-12-20T13:29:13;1.97;;;1.00;;
12687;SDS011;6408;59.388;17.798;2023-12-20T13:31:41;3.27;;;1.20;;
12687;SDS011;6408;59.388;17.798;2023-12-20T13:34:08;4.40;;;1.20;;
12687;SDS011;6408;59.388;17.798;2023-12-20T13:36:35;1.77;;;1.00;;
12687;SDS011;6408;59.388;17.798;2023-12-20T13:39:03;1.20;;;1.03;;
12687;SDS011;6408;59.388;17.798;2023-12-20T13:41:32;2.50;;;1.20;;
12687;SDS011;6408;59.388;17.798;2023-12-20T13:43:59;2.90;;;1.33;;
12687;SDS011;6408;59.388;17.798;2023-12-20T13:46:28;5.43;;;1.10;;
12687;SDS011;6408;59.388;17.798;2023-12-20T13:48:55;1.77;;;1.00;;
12687;SDS011;6408;59.388;17.798;2023-12-20T13:51:22;1.00;;;0.90;;
12687;SDS011;6408;59.388;17.798;2023-12-20T13:53:49;1.67;;;1.07;;
12687;SDS011;6408;59.388;17.798;2023-12-20T13:56:16;1.77;;;1.30;;
12687;SDS011;6408;59.388;17.798;2023-12-20T13:58:47;2.43;;;1.00;;
12687;SDS011;6408;59.388;17.798;2023-12-20T14:01:14;4.60;;;1.10;;
12687;SDS011;6408;59.388;17.798;2023-12-20T14:03:41;4.67;;;1.47;;
12687;SDS011;6408;59.388;17.798;2023-12-20T14:06:08;2.03;;;1.10;;
12687;SDS011;6408;59.388;17.798;2023-12-20T14:08:35;2.33;;;1.30;;
12687;SDS011;6408;59.388;17.798;2023-12-20T14:11:03;3.73;;;1.40;;
12687;SDS011;6408;59.388;17.798;2023-12-20T14:13:30;3.33;;;1.40;;
12687;SDS011;6408;59.388;17.798;2023-12-20T14:15:59;3.67;;;1.53;;
12687;SDS011;6408;59.388;17.798;2023-12-20T14:18:27;4.37;;;1.40;;
12687;SDS011;6408;59.388;17.798;2023-12-20T14:20:55;3.23;;;1.37;;
12687;SDS011;6408;59.388;17.798;2023-12-20T14:23:22;5.90;;;1.40;;
12687;SDS011;6408;59.388;17.798;2023-12-20T14:25:50;1.90;;;1.30;;
12687;SDS011;6408;59.388;17.798;2023-12-20T14:28:17;2.87;;;1.40;;
12687;SDS011;6408;59.388;17.798;2023-12-20T14:30:44;4.23;;;1.50;;
12687;SDS011;6408;59.388;17.798;2023-12-20T14:33:13;2.00;;;1.23;;
12687;SDS011;6408;59.388;17.798;2023-12-20T14:35:40;2.30;;;1.47;;
12687;SDS011;6408;59.388;17.798;2023-12-20T14:38:09;4.20;;;1.70;;
12687;SDS011;6408;59.388;17.798;2023-12-20T14:40:38;3.60;;;1.50;;
12687;SDS011;6408;59.388;17.798;2023-12-20T14:43:05;5.73;;;1.70;;
12687;SDS011;6408;59.388;17.798;2023-12-20T14:45:32;2.67;;;1.57;;
12687;SDS011;6408;59.388;17.798;2023-12-20T14:48:00;3.23;;;1.50;;
12687;SDS011;6408;59.388;17.798;2023-12-20T14:50:29;4.17;;;2.00;;